createdAt,value
2023-02-14T00:00:38.231Z,8.45
2023-02-14T00:01:39.126Z,8.49
2023-02-14T00:02:40.042Z,8.46
2023-02-14T00:03:40.477Z,8.44
2023-02-14T00:04:41.480Z,8.45
2023-02-14T00:05:41.822Z,8.50
2023-02-14T00:06:42.672Z,8.50
2023-02-14T00:07:43.524Z,8.52
2023-02-14T00:08:44.464Z,8.54
2023-02-14T00:09:45.236Z,8.57
2023-02-14T00:10:46.088Z,8.60
2023-02-14T00:11:46.954Z,8.60
2023-02-14T00:12:47.801Z,8.60
2023-02-14T00:13:48.657Z,8.57
2023-02-14T00:14:49.504Z,8.60
2023-02-14T00:15:50.420Z,8.56
2023-02-14T00:16:51.218Z,8.57
2023-02-14T00:17:52.099Z,8.59
2023-02-14T00:18:52.926Z,8.60
2023-02-14T00:19:53.781Z,8.57
2023-02-14T00:20:54.630Z,8.54
2023-02-14T00:21:55.493Z,8.52
2023-02-14T00:22:56.345Z,8.46
2023-02-14T00:23:57.216Z,8.42
2023-02-14T00:24:57.992Z,8.38
2023-02-14T00:25:58.846Z,8.36
2023-02-14T00:26:59.709Z,8.36
2023-02-14T00:28:00.565Z,8.32
2023-02-14T00:29:01.443Z,8.32
2023-02-14T00:30:02.431Z,8.28
2023-02-14T00:31:03.119Z,8.27
2023-02-14T00:32:03.575Z,8.28
2023-02-14T00:33:04.395Z,8.27
2023-02-14T00:34:05.215Z,8.27
2023-02-14T00:35:06.068Z,8.28
2023-02-14T00:36:06.963Z,8.32
2023-02-14T00:37:07.803Z,8.23
2023-02-14T00:38:08.657Z,8.24
2023-02-14T00:39:09.526Z,8.18
2023-02-14T00:40:10.305Z,8.14
2023-02-14T00:41:11.178Z,8.08
2023-02-14T00:42:12.487Z,8.03
2023-02-14T00:43:12.838Z,8.01
2023-02-14T00:44:13.717Z,7.99
2023-02-14T00:45:14.551Z,8.02
2023-02-14T00:46:15.500Z,8.05
2023-02-14T00:47:16.386Z,8.03
2023-02-14T00:48:17.264Z,8.03
2023-02-14T00:49:18.092Z,8.02
2023-02-14T00:50:18.942Z,8.05
2023-02-14T00:51:19.805Z,7.99
2023-02-14T00:52:20.687Z,7.96
2023-02-14T00:53:21.530Z,7.90
2023-02-14T00:54:22.441Z,7.88
2023-02-14T00:55:23.223Z,7.83
2023-02-14T00:56:24.075Z,7.78
2023-02-14T00:57:24.957Z,7.77
2023-02-14T00:58:25.790Z,7.80
2023-02-14T00:59:26.650Z,7.78
2023-02-14T01:00:27.500Z,7.77
2023-02-14T01:01:28.397Z,7.75
2023-02-14T01:02:29.287Z,7.74
2023-02-14T01:03:30.131Z,7.78
2023-02-14T01:04:30.952Z,7.77
2023-02-14T01:05:31.803Z,7.72
2023-02-14T01:06:32.655Z,7.74
2023-02-14T01:07:33.515Z,7.66
2023-02-14T01:08:34.368Z,7.64
2023-02-14T01:09:35.254Z,7.67
2023-02-14T01:10:36.042Z,7.61
2023-02-14T01:11:36.904Z,7.59
2023-02-14T01:12:37.754Z,7.56
2023-02-14T01:13:38.610Z,7.58
2023-02-14T01:14:39.469Z,7.51
2023-02-14T01:15:40.314Z,7.47
2023-02-14T01:16:41.182Z,7.47
2023-02-14T01:17:42.028Z,7.41
2023-02-14T01:18:42.935Z,7.37
2023-02-14T01:19:43.735Z,7.26
2023-02-14T01:20:44.579Z,7.26
2023-02-14T01:21:45.455Z,7.28
2023-02-14T01:22:46.292Z,7.32
2023-02-14T01:23:47.144Z,7.39
2023-02-14T01:24:48.016Z,7.46
2023-02-14T01:25:48.800Z,7.47
2023-02-14T01:26:49.653Z,7.51
2023-02-14T01:27:50.996Z,7.53
2023-02-14T01:28:51.335Z,7.56
2023-02-14T01:29:52.214Z,7.55
2023-02-14T01:30:53.114Z,7.56
2023-02-14T01:31:53.973Z,7.59
2023-02-14T01:32:54.782Z,7.59
2023-02-14T01:33:55.666Z,7.56
2023-02-14T01:34:56.487Z,7.61
2023-02-14T01:35:57.338Z,7.62
2023-02-14T01:36:58.189Z,7.62
2023-02-14T01:37:59.050Z,7.61
2023-02-14T01:38:59.904Z,7.58
2023-02-14T01:40:00.775Z,7.56
2023-02-14T01:41:01.771Z,7.50
2023-02-14T01:42:02.210Z,7.44
2023-02-14T01:43:03.068Z,7.40
2023-02-14T01:44:03.921Z,7.40
2023-02-14T01:45:04.778Z,7.33
2023-02-14T01:46:05.698Z,7.29
2023-02-14T01:47:06.502Z,7.23
2023-02-14T01:48:07.375Z,7.21
2023-02-14T01:49:08.232Z,7.14
2023-02-14T01:50:09.073Z,7.15
2023-02-14T01:51:09.924Z,7.13
2023-02-14T01:52:10.777Z,7.13
2023-02-14T01:53:11.998Z,7.13
2023-02-14T01:54:12.345Z,7.13
2023-02-14T01:55:13.223Z,7.07
2023-02-14T01:56:14.028Z,7.13
2023-02-14T01:57:14.870Z,7.10
2023-02-14T01:58:15.979Z,7.11
2023-02-14T01:59:16.331Z,7.10
2023-02-14T02:00:17.191Z,7.14
2023-02-14T02:01:18.082Z,7.14
2023-02-14T02:02:18.944Z,7.14
2023-02-14T02:03:20.487Z,7.19
2023-02-14T02:04:20.360Z,7.23
2023-02-14T02:05:21.187Z,7.22
2023-02-14T02:06:22.046Z,7.21
2023-02-14T02:07:22.891Z,7.23
2023-02-14T02:08:23.753Z,7.22
2023-02-14T02:09:24.608Z,7.22
2023-02-14T02:10:25.476Z,7.21
2023-02-14T02:11:26.250Z,7.19
2023-02-14T02:12:28.723Z,7.21
2023-02-14T02:13:27.980Z,7.18
2023-02-14T02:14:28.332Z,7.13
2023-02-14T02:15:29.190Z,7.13
2023-02-14T02:16:30.079Z,7.08
2023-02-14T02:17:30.900Z,7.07
2023-02-14T02:18:31.749Z,7.05
2023-02-14T02:19:32.629Z,7.08
2023-02-14T02:20:33.463Z,7.08
2023-02-14T02:21:34.312Z,7.07
2023-02-14T02:22:35.165Z,7.07
2023-02-14T02:23:36.030Z,7.11
2023-02-14T02:24:36.887Z,7.13
2023-02-14T02:25:37.753Z,7.13
2023-02-14T02:26:38.545Z,7.18
2023-02-14T02:27:39.380Z,7.22
2023-02-14T02:28:40.241Z,7.23
2023-02-14T02:29:41.136Z,7.21
2023-02-14T02:30:42.164Z,7.23
2023-02-14T02:31:42.667Z,7.23
2023-02-14T02:32:43.024Z,7.28
2023-02-14T02:33:43.889Z,7.28
2023-02-14T02:34:44.756Z,7.28
2023-02-14T02:35:45.594Z,7.23
2023-02-14T02:36:46.442Z,7.19
2023-02-14T02:37:47.290Z,7.15
2023-02-14T02:38:48.153Z,7.14
2023-02-14T02:39:49.008Z,7.08
2023-02-14T02:40:50.052Z,7.07
2023-02-14T02:41:50.822Z,7.03
2023-02-14T02:42:51.684Z,7.00
2023-02-14T02:43:52.547Z,7.03
2023-02-14T02:44:53.402Z,6.95
2023-02-14T02:45:54.308Z,6.96
2023-02-14T02:46:55.110Z,6.90
2023-02-14T02:47:55.963Z,6.87
2023-02-14T02:48:56.978Z,6.85
2023-02-14T02:49:57.347Z,6.82
2023-02-14T02:50:58.626Z,6.82
2023-02-14T02:51:59.161Z,6.74
2023-02-14T02:53:00.011Z,6.72
2023-02-14T02:54:01.449Z,6.71
2023-02-14T02:55:01.800Z,6.71
2023-02-14T02:56:02.672Z,6.71
2023-02-14T02:57:03.464Z,6.71
2023-02-14T02:58:04.324Z,6.71
2023-02-14T02:59:05.191Z,6.74
2023-02-14T03:00:06.050Z,6.71
2023-02-14T03:01:06.939Z,6.72
2023-02-14T03:02:07.845Z,6.70
2023-02-14T03:03:08.720Z,6.71
2023-02-14T03:04:09.586Z,6.72
2023-02-14T03:05:10.510Z,6.75
2023-02-14T03:06:11.331Z,6.75
2023-02-14T03:07:12.185Z,6.77
2023-02-14T03:08:13.040Z,6.80
2023-02-14T03:09:13.908Z,6.77
2023-02-14T03:10:14.757Z,6.80
2023-02-14T03:11:15.631Z,6.78
2023-02-14T03:12:16.435Z,6.80
2023-02-14T03:13:17.296Z,6.82
2023-02-14T03:14:18.154Z,6.82
2023-02-14T03:15:19.004Z,6.80
2023-02-14T03:16:20.067Z,6.80
2023-02-14T03:17:20.417Z,6.83
2023-02-14T03:18:21.275Z,6.85
2023-02-14T03:19:22.136Z,6.83
2023-02-14T03:20:23.021Z,6.83
2023-02-14T03:21:23.845Z,6.83
2023-02-14T03:22:24.697Z,6.86
2023-02-14T03:23:25.549Z,6.86
2023-02-14T03:24:26.415Z,6.87
2023-02-14T03:25:27.263Z,6.87
2023-02-14T03:26:28.135Z,6.90
2023-02-14T03:27:28.909Z,6.89
2023-02-14T03:28:29.760Z,6.89
2023-02-14T03:29:30.624Z,6.89
2023-02-14T03:30:31.582Z,6.87
2023-02-14T03:31:32.596Z,6.85
2023-02-14T03:32:32.959Z,6.87
2023-02-14T03:33:33.813Z,6.86
2023-02-14T03:34:34.673Z,6.85
2023-02-14T03:35:35.551Z,6.78
2023-02-14T03:36:36.377Z,6.77
2023-02-14T03:37:37.232Z,6.80
2023-02-14T03:38:38.089Z,6.78
2023-02-14T03:39:38.955Z,6.75
2023-02-14T03:40:39.838Z,6.77
2023-02-14T03:41:40.707Z,6.74
2023-02-14T03:42:41.500Z,6.77
2023-02-14T03:43:42.361Z,6.74
2023-02-14T03:44:43.217Z,6.78
2023-02-14T03:45:44.086Z,6.86
2023-02-14T03:46:45.012Z,6.87
2023-02-14T03:47:45.803Z,6.95
2023-02-14T03:48:46.666Z,7.01
2023-02-14T03:49:47.525Z,7.10
2023-02-14T03:50:48.402Z,7.14
2023-02-14T03:51:49.235Z,7.18
2023-02-14T03:52:50.085Z,7.21
2023-02-14T03:53:50.942Z,7.23
2023-02-14T03:54:51.979Z,7.26
2023-02-14T03:55:52.346Z,7.28
2023-02-14T03:56:53.234Z,7.28
2023-02-14T03:57:54.057Z,7.32
2023-02-14T03:58:54.911Z,7.31
2023-02-14T03:59:55.774Z,7.33
2023-02-14T04:00:56.918Z,7.28
2023-02-14T04:01:57.460Z,7.29
2023-02-14T04:02:58.261Z,7.31
2023-02-14T04:03:59.120Z,7.31
2023-02-14T04:04:59.979Z,7.26
2023-02-14T04:06:00.860Z,7.29
2023-02-14T04:07:01.684Z,7.33
2023-02-14T04:08:02.537Z,7.33
2023-02-14T04:09:03.388Z,7.33
2023-02-14T04:10:04.465Z,7.32
2023-02-14T04:11:04.822Z,7.33
2023-02-14T04:12:05.694Z,7.28
2023-02-14T04:13:06.487Z,7.28
2023-02-14T04:14:07.335Z,7.26
2023-02-14T04:15:08.476Z,7.25
2023-02-14T04:16:08.930Z,7.22
2023-02-14T04:17:09.740Z,7.19
2023-02-14T04:18:10.604Z,7.19
2023-02-14T04:19:11.467Z,7.11
2023-02-14T04:20:12.465Z,7.07
2023-02-14T04:21:12.842Z,7.08
2023-02-14T04:22:13.689Z,7.10
2023-02-14T04:23:14.543Z,7.18
2023-02-14T04:24:15.412Z,7.15
2023-02-14T04:25:16.262Z,7.13
2023-02-14T04:26:17.127Z,7.13
2023-02-14T04:27:18.005Z,7.07
2023-02-14T04:28:18.785Z,7.04
2023-02-14T04:29:19.649Z,7.03
2023-02-14T04:30:21.129Z,6.97
2023-02-14T04:31:21.537Z,6.96
2023-02-14T04:32:22.473Z,6.85
2023-02-14T04:33:23.265Z,6.83
2023-02-14T04:34:24.118Z,6.78
2023-02-14T04:35:24.982Z,6.71
2023-02-14T04:36:25.863Z,6.64
2023-02-14T04:37:26.690Z,6.53
2023-02-14T04:38:27.557Z,6.47
2023-02-14T04:39:28.393Z,6.39
2023-02-14T04:40:29.460Z,6.35
2023-02-14T04:41:29.812Z,6.28
2023-02-14T04:42:30.692Z,6.26
2023-02-14T04:43:31.480Z,6.19
2023-02-14T04:44:32.327Z,6.25
2023-02-14T04:45:33.188Z,6.32
2023-02-14T04:46:34.098Z,6.46
2023-02-14T04:47:34.928Z,6.50
2023-02-14T04:48:35.774Z,6.62
2023-02-14T04:49:36.384Z,6.68
2023-02-14T04:50:37.468Z,6.72
2023-02-14T04:51:37.896Z,6.74
2023-02-14T04:52:38.682Z,6.80
2023-02-14T04:53:39.530Z,6.80
2023-02-14T04:54:40.403Z,6.83
2023-02-14T04:55:41.479Z,6.80
2023-02-14T04:56:41.839Z,6.87
2023-02-14T04:57:42.700Z,6.89
2023-02-14T04:58:43.534Z,6.86
2023-02-14T04:59:44.392Z,6.85
2023-02-14T05:00:45.496Z,6.85
2023-02-14T05:01:45.827Z,6.82
2023-02-14T05:02:46.695Z,6.83
2023-02-14T05:03:47.525Z,6.80
2023-02-14T05:04:49.816Z,6.75
2023-02-14T05:05:49.461Z,6.72
2023-02-14T05:06:49.830Z,6.67
2023-02-14T05:07:50.684Z,6.57
2023-02-14T05:08:51.536Z,6.47
2023-02-14T05:09:52.398Z,6.31
2023-02-14T05:10:53.289Z,6.19
2023-02-14T05:11:54.153Z,6.09
2023-02-14T05:12:55.029Z,5.99
2023-02-14T05:13:55.802Z,5.95
2023-02-14T05:14:56.669Z,5.90
2023-02-14T05:15:57.999Z,5.84
2023-02-14T05:16:58.310Z,5.77
2023-02-14T05:17:59.173Z,5.69
2023-02-14T05:19:00.030Z,5.61
2023-02-14T05:20:00.891Z,5.56
2023-02-14T05:21:02.300Z,5.51
2023-02-14T05:22:02.720Z,5.47
2023-02-14T05:23:03.584Z,5.46
2023-02-14T05:24:04.407Z,5.41
2023-02-14T05:25:05.279Z,5.37
2023-02-14T05:26:06.449Z,5.28
2023-02-14T05:27:06.802Z,5.25
2023-02-14T05:28:07.674Z,5.13
2023-02-14T05:29:08.475Z,5.12
2023-02-14T05:30:09.459Z,5.05
2023-02-14T05:31:10.561Z,4.97
2023-02-14T05:32:11.100Z,4.92
2023-02-14T05:33:11.948Z,4.86
2023-02-14T05:34:12.802Z,4.79
2023-02-14T05:35:13.658Z,4.71
2023-02-14T05:36:14.945Z,4.67
2023-02-14T05:37:15.331Z,4.60
2023-02-14T05:38:16.154Z,4.61
2023-02-14T05:39:17.015Z,4.56
2023-02-14T05:40:17.861Z,4.52
2023-02-14T05:41:18.727Z,4.50
2023-02-14T05:42:19.594Z,4.43
2023-02-14T05:43:20.469Z,4.43
2023-02-14T05:44:21.250Z,4.38
2023-02-14T05:45:22.116Z,4.31
2023-02-14T05:46:22.965Z,4.31
2023-02-14T05:47:23.820Z,4.27
2023-02-14T05:48:24.676Z,4.25
2023-02-14T05:49:25.526Z,4.24
2023-02-14T05:50:26.381Z,4.25
2023-02-14T05:51:27.447Z,4.25
2023-02-14T05:52:27.817Z,4.24
2023-02-14T05:53:28.652Z,4.24
2023-02-14T05:54:29.511Z,4.31
2023-02-14T05:55:30.361Z,4.27
2023-02-14T05:56:31.245Z,4.28
2023-02-14T05:57:32.102Z,4.31
2023-02-14T05:58:32.971Z,4.24
2023-02-14T05:59:33.755Z,4.27
2023-02-14T06:00:34.606Z,4.30
2023-02-14T06:01:35.481Z,4.27
2023-02-14T06:02:36.328Z,4.25
2023-02-14T06:03:37.181Z,4.25
2023-02-14T06:04:38.094Z,4.25
2023-02-14T06:05:38.912Z,4.25
2023-02-14T06:06:39.946Z,4.21
2023-02-14T06:07:40.342Z,4.18
2023-02-14T06:08:41.221Z,4.18
2023-02-14T06:09:42.075Z,4.16
2023-02-14T06:10:42.928Z,4.12
2023-02-14T06:11:43.800Z,4.06
2023-02-14T06:12:44.646Z,4.06
2023-02-14T06:13:45.516Z,4.07
2023-02-14T06:14:46.300Z,4.09
2023-02-14T06:15:47.156Z,4.03
2023-02-14T06:16:48.479Z,4.04
2023-02-14T06:17:48.799Z,4.04
2023-02-14T06:18:49.656Z,4.03
2023-02-14T06:19:50.538Z,4.00
2023-02-14T06:20:51.388Z,3.89
2023-02-14T06:21:52.446Z,3.91
2023-02-14T06:22:52.848Z,3.94
2023-02-14T06:23:53.656Z,3.95
2023-02-14T06:24:54.509Z,3.99
2023-02-14T06:25:55.375Z,4.04
2023-02-14T06:26:56.445Z,4.04
2023-02-14T06:27:56.814Z,4.04
2023-02-14T06:28:57.679Z,4.02
2023-02-14T06:29:58.490Z,3.95
2023-02-14T06:30:59.863Z,3.94
2023-02-14T06:32:00.085Z,3.89
2023-02-14T06:33:00.430Z,3.88
2023-02-14T06:34:01.287Z,3.94
2023-02-14T06:35:02.143Z,3.94
2023-02-14T06:36:03.034Z,4.00
2023-02-14T06:37:03.944Z,4.06
2023-02-14T06:38:04.822Z,4.10
2023-02-14T06:39:05.656Z,4.18
2023-02-14T06:40:06.530Z,4.16
2023-02-14T06:41:07.377Z,4.12
2023-02-14T06:42:08.239Z,4.13
2023-02-14T06:43:09.090Z,4.12
2023-02-14T06:44:09.962Z,4.07
2023-02-14T06:45:10.751Z,4.04
2023-02-14T06:46:11.645Z,4.06
2023-02-14T06:47:12.943Z,4.04
2023-02-14T06:48:13.297Z,4.04
2023-02-14T06:49:14.150Z,4.00
2023-02-14T06:50:15.041Z,3.94
2023-02-14T06:51:15.876Z,3.94
2023-02-14T06:52:16.740Z,3.92
2023-02-14T06:53:17.630Z,3.95
2023-02-14T06:54:18.469Z,3.95
2023-02-14T06:55:19.324Z,3.99
2023-02-14T06:56:20.182Z,4.02
2023-02-14T06:57:21.453Z,4.09
2023-02-14T06:58:21.809Z,4.06
2023-02-14T06:59:22.681Z,4.13
2023-02-14T07:00:23.464Z,4.18
2023-02-14T07:01:24.394Z,4.28
2023-02-14T07:02:25.367Z,4.40
2023-02-14T07:03:26.179Z,4.63
2023-02-14T07:04:27.032Z,4.92
2023-02-14T07:05:27.883Z,5.16
2023-02-14T07:06:28.740Z,5.40
2023-02-14T07:07:29.609Z,5.64
2023-02-14T07:08:30.481Z,5.83
2023-02-14T07:09:31.322Z,6.05
2023-02-14T07:10:32.169Z,6.29
2023-02-14T07:11:33.050Z,6.47
2023-02-14T07:12:33.905Z,6.49
2023-02-14T07:13:34.768Z,6.53
2023-02-14T07:14:35.648Z,6.54
2023-02-14T07:15:36.476Z,6.31
2023-02-14T07:16:37.299Z,6.12
2023-02-14T07:17:38.439Z,6.02
2023-02-14T07:18:38.812Z,5.98
2023-02-14T07:19:39.670Z,5.87
2023-02-14T07:20:40.524Z,5.80
2023-02-14T07:21:41.393Z,5.77
2023-02-14T07:22:42.435Z,5.84
2023-02-14T07:23:42.813Z,6.02
2023-02-14T07:24:43.815Z,6.32
2023-02-14T07:25:44.190Z,6.71
2023-02-14T07:26:45.088Z,7.18
2023-02-14T07:27:45.957Z,7.53
2023-02-14T07:28:46.804Z,8.01
2023-02-14T07:29:47.787Z,8.26
2023-02-14T07:30:48.752Z,8.31
2023-02-14T07:31:49.260Z,8.35
2023-02-14T07:32:49.601Z,8.32
2023-02-14T07:33:50.458Z,8.17
2023-02-14T07:34:51.371Z,8.21
2023-02-14T07:35:52.164Z,7.96
2023-02-14T07:36:53.039Z,7.78
2023-02-14T07:37:53.937Z,7.90
2023-02-14T07:38:54.810Z,7.99
2023-02-14T07:39:55.653Z,7.96
2023-02-14T07:40:56.560Z,7.61
2023-02-14T07:41:57.362Z,7.50
2023-02-14T07:42:58.432Z,7.58
2023-02-14T07:43:58.801Z,7.77
2023-02-14T07:45:04.823Z,8.02
2023-02-14T07:46:01.450Z,8.24
2023-02-14T07:47:01.296Z,8.44
2023-02-14T07:48:02.192Z,8.49
2023-02-14T07:49:03.029Z,8.60
2023-02-14T07:50:03.874Z,8.75
2023-02-14T07:51:04.731Z,8.54
2023-02-14T07:52:05.670Z,8.44
2023-02-14T07:53:07.029Z,8.27
2023-02-14T07:54:07.341Z,8.26
2023-02-14T07:55:08.181Z,8.32
2023-02-14T07:56:09.018Z,8.45
2023-02-14T07:57:09.882Z,8.75
2023-02-14T07:58:10.750Z,8.95
2023-02-14T07:59:11.612Z,9.29
2023-02-14T08:00:12.551Z,9.66
2023-02-14T08:01:13.391Z,10.05
2023-02-14T08:02:14.221Z,10.34
2023-02-14T08:03:15.432Z,10.64
2023-02-14T08:04:15.786Z,10.86
2023-02-14T08:05:16.694Z,10.90
2023-02-14T08:06:17.511Z,10.76
2023-02-14T08:07:18.360Z,10.65
2023-02-14T08:08:19.238Z,10.48
2023-02-14T08:09:20.139Z,10.46
2023-02-14T08:10:20.949Z,10.68
2023-02-14T08:11:21.795Z,10.83
2023-02-14T08:12:22.661Z,11.10
2023-02-14T08:13:23.506Z,11.49
2023-02-14T08:14:24.362Z,11.88
2023-02-14T08:15:25.229Z,12.29
2023-02-14T08:16:26.042Z,12.57
2023-02-14T08:17:26.896Z,12.84
2023-02-14T08:18:27.781Z,13.19
2023-02-14T08:19:28.608Z,13.46
2023-02-14T08:20:29.463Z,13.49
2023-02-14T08:21:30.316Z,13.49
2023-02-14T08:22:31.177Z,13.24
2023-02-14T08:23:32.433Z,13.52
2023-02-14T08:24:32.819Z,13.93
2023-02-14T08:25:33.629Z,14.26
2023-02-14T08:26:34.594Z,14.49
2023-02-14T08:27:35.458Z,14.41
2023-02-14T08:28:36.431Z,14.15
2023-02-14T08:29:37.283Z,13.94
2023-02-14T08:30:38.180Z,13.73
2023-02-14T08:31:39.015Z,13.76
2023-02-14T08:32:40.030Z,13.89
2023-02-14T08:33:40.608Z,14.15
2023-02-14T08:34:41.476Z,14.31
2023-02-14T08:35:42.366Z,14.37
2023-02-14T08:36:43.209Z,14.37
2023-02-14T08:37:44.062Z,14.52
2023-02-14T08:38:45.424Z,14.67
2023-02-14T08:39:45.804Z,14.59
2023-02-14T08:40:46.781Z,14.85
2023-02-14T08:41:47.634Z,14.96
2023-02-14T08:42:48.481Z,15.18
2023-02-14T08:43:49.345Z,15.54
2023-02-14T08:44:50.215Z,15.85
2023-02-14T08:45:51.085Z,16.26
2023-02-14T08:46:51.964Z,16.62
2023-02-14T08:47:52.792Z,16.80
2023-02-14T08:48:53.927Z,16.94
2023-02-14T08:49:54.277Z,17.01
2023-02-14T08:50:55.161Z,17.13
2023-02-14T08:51:56.028Z,17.05
2023-02-14T08:52:56.876Z,17.42
2023-02-14T08:53:57.749Z,17.50
2023-02-14T08:54:58.628Z,18.03
2023-02-14T08:55:59.790Z,18.21
2023-02-14T08:57:00.289Z,18.00
2023-02-14T08:58:01.156Z,17.57
2023-02-14T08:59:02.511Z,17.50
2023-02-14T09:00:02.805Z,17.44
2023-02-14T09:01:04.037Z,17.42
2023-02-14T09:02:04.482Z,17.41
2023-02-14T09:03:05.371Z,17.57
2023-02-14T09:04:06.500Z,17.53
2023-02-14T09:05:06.881Z,17.57
2023-02-14T09:06:07.746Z,17.57
2023-02-14T09:07:08.607Z,17.54
2023-02-14T09:08:09.486Z,17.65
2023-02-14T09:09:10.437Z,17.63
2023-02-14T09:10:11.345Z,17.82
2023-02-14T09:11:12.209Z,18.00
2023-02-14T09:12:12.988Z,18.23
2023-02-14T09:13:13.843Z,18.21
2023-02-14T09:14:14.941Z,18.49
2023-02-14T09:15:15.376Z,18.66
2023-02-14T09:16:16.213Z,18.61
2023-02-14T09:17:17.082Z,18.68
2023-02-14T09:18:17.976Z,18.76
2023-02-14T09:19:18.971Z,18.71
2023-02-14T09:20:19.317Z,18.68
2023-02-14T09:21:20.258Z,18.74
2023-02-14T09:22:21.032Z,18.68
2023-02-14T09:23:21.884Z,18.78
2023-02-14T09:24:22.746Z,18.79
2023-02-14T09:25:23.616Z,18.92
2023-02-14T09:26:24.450Z,19.04
2023-02-14T09:27:25.304Z,19.09
2023-02-14T09:28:26.246Z,19.20
2023-02-14T09:29:27.433Z,19.27
2023-02-14T09:30:27.935Z,19.39
2023-02-14T09:31:28.907Z,19.47
2023-02-14T09:32:29.785Z,19.59
2023-02-14T09:33:30.606Z,19.48
2023-02-14T09:34:31.932Z,19.41
2023-02-14T09:35:32.291Z,19.48
2023-02-14T09:36:33.146Z,19.56
2023-02-14T09:37:34.048Z,19.57
2023-02-14T09:38:34.862Z,19.64
2023-02-14T09:39:35.723Z,19.75
2023-02-14T09:40:36.599Z,19.90
2023-02-14T09:41:37.465Z,19.99
2023-02-14T09:42:38.316Z,20.11
2023-02-14T09:43:39.170Z,20.24
2023-02-14T09:44:40.033Z,20.40
2023-02-14T09:45:40.974Z,21.08
2023-02-14T09:46:41.813Z,21.28
2023-02-14T09:47:42.596Z,21.20
2023-02-14T09:48:43.486Z,21.23
2023-02-14T09:49:44.541Z,21.15
2023-02-14T09:50:44.883Z,21.05
2023-02-14T09:51:45.753Z,21.04
2023-02-14T09:52:46.624Z,21.22
2023-02-14T09:53:47.481Z,21.51
2023-02-14T09:54:48.437Z,21.28
2023-02-14T09:55:49.314Z,21.38
2023-02-14T09:56:51.622Z,21.47
2023-02-14T09:57:50.788Z,21.69
2023-02-14T09:58:51.634Z,22.25
2023-02-14T09:59:52.965Z,22.62
2023-02-14T10:00:53.345Z,22.98
2023-02-14T10:01:54.258Z,23.08
2023-02-14T10:02:55.051Z,23.18
2023-02-14T10:03:55.908Z,23.02
2023-02-14T10:04:56.941Z,22.96
2023-02-14T10:05:57.337Z,22.65
2023-02-14T10:06:58.243Z,22.49
2023-02-14T10:07:59.101Z,22.30
2023-02-14T10:08:59.973Z,22.25
2023-02-14T10:10:00.945Z,22.06
2023-02-14T10:11:02.028Z,22.06
2023-02-14T10:12:02.393Z,22.03
2023-02-14T10:13:03.248Z,22.16
2023-02-14T10:14:04.124Z,22.03
2023-02-14T10:15:05.456Z,21.84
2023-02-14T10:16:05.904Z,22.41
2023-02-14T10:17:06.736Z,22.71
2023-02-14T10:18:07.562Z,23.21
2023-02-14T10:19:08.426Z,22.98
2023-02-14T10:20:09.443Z,23.07
2023-02-14T10:21:09.809Z,22.18
2023-02-14T10:22:10.667Z,21.97
2023-02-14T10:23:11.533Z,21.10
2023-02-14T10:24:12.390Z,20.27
2023-02-14T10:25:13.256Z,20.14
2023-02-14T10:26:14.139Z,20.26
2023-02-14T10:27:14.994Z,20.95
2023-02-14T10:28:17.001Z,21.40
2023-02-14T10:29:16.337Z,21.75
2023-02-14T10:30:17.490Z,21.83
2023-02-14T10:31:17.996Z,21.70
2023-02-14T10:32:18.416Z,22.22
2023-02-14T10:33:19.217Z,22.19
2023-02-14T10:34:20.074Z,22.81
2023-02-14T10:35:21.449Z,22.83
2023-02-14T10:36:21.849Z,22.80
2023-02-14T10:37:22.929Z,22.33
2023-02-14T10:38:23.303Z,22.67
2023-02-14T10:39:24.170Z,23.55
2023-02-14T10:40:25.035Z,23.67
2023-02-14T10:41:25.908Z,23.76
2023-02-14T10:42:26.818Z,23.29
2023-02-14T10:43:27.599Z,22.99
2023-02-14T10:44:28.490Z,22.28
2023-02-14T10:45:29.334Z,21.83
2023-02-14T10:46:30.263Z,21.56
2023-02-14T10:47:31.083Z,21.81
2023-02-14T10:48:31.862Z,22.30
2023-02-14T10:49:32.719Z,22.43
2023-02-14T10:50:33.948Z,23.04
2023-02-14T10:51:34.364Z,22.95
2023-02-14T10:52:35.177Z,23.34
2023-02-14T10:53:36.025Z,22.89
2023-02-14T10:54:36.908Z,22.68
2023-02-14T10:55:37.952Z,22.93
2023-02-14T10:56:38.318Z,23.08
2023-02-14T10:57:39.213Z,22.73
2023-02-14T10:58:40.046Z,22.25
2023-02-14T10:59:40.890Z,22.22
2023-02-14T11:00:41.757Z,22.21
2023-02-14T11:01:42.692Z,22.44
2023-02-14T11:02:43.534Z,22.88
2023-02-14T11:03:44.438Z,23.47
2023-02-14T11:04:45.232Z,23.45
2023-02-14T11:05:46.960Z,23.54
2023-02-14T11:06:46.790Z,23.23
2023-02-14T11:07:47.725Z,23.14
2023-02-14T11:08:48.578Z,23.49
2023-02-14T11:09:49.439Z,23.10
2023-02-14T11:10:50.460Z,23.92
2023-02-14T11:11:50.864Z,25.03
2023-02-14T11:12:51.752Z,25.55
2023-02-14T11:13:52.589Z,24.96
2023-02-14T11:14:53.444Z,24.68
2023-02-14T11:15:54.459Z,25.52
2023-02-14T11:16:54.920Z,26.22
2023-02-14T11:17:55.784Z,26.33
2023-02-14T11:18:56.572Z,25.58
2023-02-14T11:19:57.431Z,25.59
2023-02-14T11:20:58.460Z,25.66
2023-02-14T11:21:58.821Z,24.97
2023-02-14T11:22:59.698Z,24.58
2023-02-14T11:24:00.564Z,24.68
2023-02-14T11:25:03.507Z,25.01
2023-02-14T11:26:02.462Z,25.92
2023-02-14T11:27:03.346Z,26.51
2023-02-14T11:28:04.212Z,26.45
2023-02-14T11:29:05.075Z,26.79
2023-02-14T11:30:05.969Z,27.16
2023-02-14T11:31:07.101Z,26.61
2023-02-14T11:32:07.438Z,26.59
2023-02-14T11:33:08.320Z,25.81
2023-02-14T11:34:09.149Z,25.67
2023-02-14T11:35:10.003Z,25.41
2023-02-14T11:36:10.870Z,24.48
2023-02-14T11:37:11.725Z,24.31
2023-02-14T11:38:12.620Z,24.38
2023-02-14T11:39:13.461Z,24.79
2023-02-14T11:40:14.317Z,24.75
2023-02-14T11:41:15.470Z,24.25
2023-02-14T11:42:15.820Z,24.41
2023-02-14T11:43:16.702Z,24.48
2023-02-14T11:44:17.538Z,24.14
2023-02-14T11:45:18.397Z,24.37
2023-02-14T11:46:19.476Z,23.94
2023-02-14T11:47:19.818Z,23.51
2023-02-14T11:48:31.440Z,22.81
2023-02-14T11:49:22.184Z,22.83
2023-02-14T11:50:22.056Z,23.32
2023-02-14T11:51:22.962Z,22.74
2023-02-14T11:52:23.818Z,22.74
2023-02-14T11:53:24.683Z,22.91
2023-02-14T11:54:25.531Z,22.84
2023-02-14T11:55:26.386Z,22.95
2023-02-14T11:56:27.249Z,23.01
2023-02-14T11:57:28.100Z,23.86
2023-02-14T11:58:28.976Z,24.38
2023-02-14T11:59:29.802Z,24.59
2023-02-14T12:00:30.655Z,24.86
2023-02-14T12:01:31.528Z,25.09
2023-02-14T12:02:32.431Z,24.93
2023-02-14T12:03:33.897Z,24.97
2023-02-14T12:04:38.095Z,25.18
2023-02-14T12:05:36.006Z,25.91
2023-02-14T12:06:35.976Z,25.25
2023-02-14T12:07:36.843Z,25.24
2023-02-14T12:08:37.683Z,24.13
2023-02-14T12:09:38.535Z,23.99
2023-02-14T12:10:39.449Z,24.26
2023-02-14T12:11:40.495Z,24.29
2023-02-14T12:12:40.821Z,25.21
2023-02-14T12:13:41.690Z,25.62
2023-02-14T12:14:42.536Z,26.11
2023-02-14T12:15:43.422Z,25.83
2023-02-14T12:16:44.474Z,25.96
2023-02-14T12:17:44.840Z,26.22
2023-02-14T12:18:45.723Z,25.85
2023-02-14T12:19:46.530Z,26.33
2023-02-14T12:20:47.388Z,26.85
2023-02-14T12:21:48.258Z,26.93
2023-02-14T12:22:49.104Z,26.88
2023-02-14T12:23:49.953Z,27.15
2023-02-14T12:24:50.932Z,27.44
2023-02-14T12:25:51.803Z,26.92
2023-02-14T12:26:52.653Z,26.37
2023-02-14T12:27:53.509Z,26.33
2023-02-14T12:28:54.389Z,26.41
2023-02-14T12:29:55.262Z,26.30
2023-02-14T12:30:56.129Z,25.89
2023-02-14T12:31:57.089Z,26.15
2023-02-14T12:32:57.454Z,26.06
2023-02-14T12:33:58.335Z,25.93
2023-02-14T12:34:59.154Z,25.92
2023-02-14T12:36:00.018Z,26.51
2023-02-14T12:37:00.863Z,27.13
2023-02-14T12:38:04.629Z,27.34
2023-02-14T12:39:02.363Z,28.08
2023-02-14T12:40:03.241Z,28.00
2023-02-14T12:41:04.093Z,28.04
2023-02-14T12:42:04.955Z,28.01
2023-02-14T12:43:05.826Z,27.64
2023-02-14T12:44:06.686Z,27.45
2023-02-14T12:45:07.520Z,27.55
2023-02-14T12:46:08.401Z,28.04
2023-02-14T12:47:09.473Z,28.00
2023-02-14T12:48:09.825Z,27.58
2023-02-14T12:49:10.721Z,28.06
2023-02-14T12:50:11.528Z,26.93
2023-02-14T12:51:12.383Z,26.10
2023-02-14T12:52:13.481Z,25.71
2023-02-14T12:53:13.825Z,25.74
2023-02-14T12:54:14.677Z,25.77
2023-02-14T12:55:15.535Z,26.01
2023-02-14T12:56:16.394Z,26.30
2023-02-14T12:57:17.256Z,26.61
2023-02-14T12:58:18.114Z,26.46
2023-02-14T12:59:18.988Z,25.83
2023-02-14T13:00:19.870Z,25.91
2023-02-14T13:01:28.756Z,25.66
2023-02-14T13:02:22.546Z,25.73
2023-02-14T13:03:21.852Z,25.34
2023-02-14T13:04:22.763Z,25.31
2023-02-14T13:05:23.550Z,25.48
2023-02-14T13:06:24.404Z,25.67
2023-02-14T13:07:25.493Z,25.73
2023-02-14T13:08:26.026Z,25.70
2023-02-14T13:09:26.358Z,25.59
2023-02-14T13:10:27.613Z,26.06
2023-02-14T13:11:27.926Z,26.55
2023-02-14T13:12:28.989Z,26.22
2023-02-14T13:13:29.790Z,27.00
2023-02-14T13:14:30.157Z,27.05
2023-02-14T13:15:30.989Z,26.85
2023-02-14T13:16:31.892Z,26.81
2023-02-14T13:17:32.987Z,26.76
2023-02-14T13:18:33.340Z,27.20